Time;durP1;ratioP1;P1;durP2;ratioP2;P2;SDS_P1;SDS_P2;PMS_P1;PMS_P2;Temp;Humidity;BMP_temperature;BMP_pressure;BME280_temperature;BME280_humidity;BME280_pressure;Samples;Min_cycle;Max_cycle;Signal;HPM_P1;HPM_P2
2021/08/23 00:00:23;;;;;;;1.98;1.38;;;;;;;22.24;58.40;102124.78;4924374;29;20031;-75
2021/08/23 00:02:49;;;;;;;1.52;1.20;;;;;;;22.24;58.42;102139.72;4957398;29;20039;-75
2021/08/23 00:05:17;;;;;;;1.10;1.00;;;;;;;22.19;58.41;102123.91;4957467;29;20038;-75
2021/08/23 00:07:42;;;;;;;1.73;1.15;;;;;;;22.24;58.47;102144.97;4925084;29;20027;-75
2021/08/23 00:10:08;;;;;;;1.00;0.80;;;;;;;22.23;58.49;102146.72;4957104;29;20041;-75
2021/08/23 00:12:34;;;;;;;1.23;1.00;;;;;;;22.22;58.25;102138.81;4957157;29;20046;-75
2021/08/23 00:14:59;;;;;;;1.40;0.93;;;;;;;22.19;58.56;102138.84;4924080;29;20066;-75
2021/08/23 00:17:25;;;;;;;1.63;1.13;;;;;;;22.23;58.34;102149.38;4957262;29;20042;-75
2021/08/23 00:19:50;;;;;;;1.45;1.13;;;;;;;22.23;58.43;102145.84;4924066;29;20042;-75
2021/08/23 00:22:36;;;;;;;1.17;1.05;;;;;;;22.20;58.45;102138.81;4956892;29;20118;-75
2021/08/23 00:25:03;;;;;;;1.52;0.98;;;;;;;22.18;58.46;102142.34;4939710;29;20058;-75
2021/08/23 00:27:29;;;;;;;1.65;0.90;;;;;;;22.22;58.45;102144.97;4939692;29;20037;-74
2021/08/23 00:29:55;;;;;;;1.60;1.00;;;;;;;22.20;58.49;102145.88;4956871;29;20482;-75
2021/08/23 00:32:21;;;;;;;1.73;1.17;;;;;;;22.19;58.41;102152.91;4939076;29;20093;-75
2021/08/23 00:34:47;;;;;;;1.48;1.13;;;;;;;22.17;58.31;102152.03;4923667;29;20050;-75
2021/08/23 00:37:14;;;;;;;1.15;0.90;;;;;;;22.19;58.22;102158.16;4956375;29;20122;-75
2021/08/23 00:39:39;;;;;;;0.95;0.88;;;;;;;22.18;58.36;102152.91;4939491;29;20089;-75
2021/08/23 00:42:06;;;;;;;1.10;0.90;;;;;;;22.20;58.49;102159.91;4939276;29;20122;-75
2021/08/23 00:44:33;;;;;;;1.20;0.80;;;;;;;22.21;58.37;102166.06;4956418;29;20027;-75
2021/08/23 00:46:59;;;;;;;1.20;0.88;;;;;;;22.21;58.50;102166.94;4956562;29;20038;-75
2021/08/23 00:49:25;;;;;;;1.52;1.05;;;;;;;22.22;58.33;102165.16;4923405;29;20406;-75
2021/08/23 00:51:55;;;;;;;1.55;1.10;;;;;;;22.20;58.36;102167.81;4939127;29;20028;-75
2021/08/23 00:54:21;;;;;;;1.25;0.95;;;;;;;22.15;58.48;102158.16;4923353;29;20035;-75
2021/08/23 00:56:48;;;;;;;1.63;0.80;;;;;;;22.20;58.38;102166.97;4939271;29;20035;-75
2021/08/23 00:59:13;;;;;;;1.25;1.17;;;;;;;22.20;58.48;102173.06;4939029;29;20031;-75
2021/08/23 01:01:57;;;;;;;1.25;0.80;;;;;;;22.20;58.45;102169.59;4923133;29;20035;-75
2021/08/23 01:04:49;;;;;;;1.05;0.90;;;;;;;22.17;58.04;102170.47;4956210;29;20029;-75
2021/08/23 01:07:18;;;;;;;1.10;0.75;;;;;;;22.21;58.31;102179.22;4956312;29;20059;-75
2021/08/23 01:09:55;;;;;;;1.40;0.90;;;;;;;22.20;58.23;102180.97;4938913;29;20437;-75
2021/08/23 01:12:21;;;;;;;1.42;1.13;;;;;;;22.19;58.19;102176.63;4938736;29;20478;-75
2021/08/23 01:14:47;;;;;;;1.38;0.80;;;;;;;22.15;58.22;102172.22;4955983;29;20061;-75
2021/08/23 01:17:12;;;;;;;1.35;0.80;;;;;;;22.21;58.38;102187.13;4922998;29;20470;-75
2021/08/23 01:19:43;;;;;;;1.15;0.90;;;;;;;22.16;58.50;102186.25;4956060;29;20038;-75
2021/08/23 01:22:11;;;;;;;1.75;1.10;;;;;;;22.15;58.16;102180.13;4956033;29;20027;-75
2021/08/23 01:24:38;;;;;;;1.20;0.90;;;;;;;22.20;58.44;102195.94;4943250;29;20074;-74
2021/08/23 01:27:07;;;;;;;1.75;1.25;;;;;;;22.17;58.33;102183.63;4960641;29;20027;-75
2021/08/23 01:29:55;;;;;;;1.38;0.95;;;;;;;22.20;58.22;102199.41;4956809;29;20071;-74
2021/08/23 01:32:23;;;;;;;1.08;0.88;;;;;;;22.16;58.28;102194.16;4938418;29;20031;-75
2021/08/23 01:34:49;;;;;;;1.10;0.90;;;;;;;22.17;58.34;102198.56;4938827;29;20035;-75
2021/08/23 01:37:21;;;;;;;1.20;0.90;;;;;;;22.21;58.37;102214.34;4922572;29;20085;-75
2021/08/23 01:39:49;;;;;;;1.35;1.05;;;;;;;22.15;58.13;102200.31;4955783;29;20051;-75
2021/08/23 01:42:15;;;;;;;1.10;0.88;;;;;;;22.19;58.37;102221.41;4955550;29;20474;-75
2021/08/23 01:44:41;;;;;;;1.73;1.10;;;;;;;22.17;58.43;102212.63;4955721;28;20055;-75
2021/08/23 01:47:07;;;;;;;1.30;1.02;;;;;;;22.18;58.24;102213.50;4938234;29;20119;-75
2021/08/23 01:49:33;;;;;;;1.80;0.97;;;;;;;22.16;58.39;102220.53;4938630;29;20430;-75
2021/08/23 01:51:58;;;;;;;0.88;0.73;;;;;;;22.20;58.26;102222.28;4938443;29;20100;-75
2021/08/23 01:54:24;;;;;;;1.58;1.02;;;;;;;22.17;58.38;102217.88;4938509;29;20386;-75
2021/08/23 01:56:49;;;;;;;2.88;1.13;;;;;;;22.13;58.18;102215.22;4938474;29;19911;-75
2021/08/23 01:59:15;;;;;;;1.13;0.82;;;;;;;22.14;58.19;102214.38;4938139;29;20027;-73
2021/08/23 02:01:40;;;;;;;1.80;1.38;;;;;;;22.19;58.36;102228.44;4938338;29;20119;-73
2021/08/23 02:04:06;;;;;;;2.80;1.10;;;;;;;22.18;58.37;102224.91;4938255;29;20027;-73
2021/08/23 02:06:32;;;;;;;1.10;0.85;;;;;;;22.17;58.21;102228.44;4938357;29;20035;-73
2021/08/23 02:08:58;;;;;;;1.10;0.80;;;;;;;22.17;58.24;102224.91;4922475;29;20024;-73
2021/08/23 02:11:24;;;;;;;1.40;1.15;;;;;;;22.14;58.27;102217.88;4955439;29;20030;-73
2021/08/23 02:13:50;;;;;;;1.15;0.95;;;;;;;22.13;58.20;102223.13;4938373;29;20530;-74
2021/08/23 02:16:15;;;;;;;0.90;0.80;;;;;;;22.16;58.40;102231.06;4955351;29;20477;-75
2021/08/23 02:18:41;;;;;;;0.65;0.55;;;;;;;22.14;58.16;102227.53;4938142;29;20038;-75
2021/08/23 02:21:06;;;;;;;1.23;0.90;;;;;;;22.15;58.23;102240.72;4938222;29;20035;-75
2021/08/23 02:23:32;;;;;;;0.98;0.60;;;;;;;22.16;58.13;102242.47;4938104;29;20046;-75
2021/08/23 02:25:57;;;;;;;1.40;1.10;;;;;;;22.18;58.05;102247.75;4938282;29;20038;-75
2021/08/23 02:28:22;;;;;;;1.20;1.00;;;;;;;22.14;58.26;102249.50;4922143;29;20442;-75
2021/08/23 02:30:48;;;;;;;0.90;0.73;;;;;;;22.14;58.09;102246.84;4922129;29;20043;-75
2021/08/23 02:33:13;;;;;;;1.48;1.00;;;;;;;22.18;58.08;102258.28;4955171;29;20070;-75
2021/08/23 02:35:39;;;;;;;1.13;0.80;;;;;;;22.18;58.12;102260.94;4955240;29;20031;-75
2021/08/23 02:38:07;;;;;;;1.70;1.02;;;;;;;22.14;58.19;102253.88;4921859;29;20055;-75
2021/08/23 02:40:33;;;;;;;1.63;0.90;;;;;;;22.15;58.25;102263.53;4955235;29;20037;-73
2021/08/23 02:42:58;;;;;;;1.70;1.10;;;;;;;22.16;58.28;102268.81;4954981;29;20038;-73
2021/08/23 02:45:24;;;;;;;1.55;1.10;;;;;;;22.15;58.13;102264.44;4938099;29;20027;-74
2021/08/23 02:47:49;;;;;;;1.15;0.90;;;;;;;22.18;58.27;102277.63;4955748;29;20031;-74
2021/08/23 02:50:14;;;;;;;1.17;0.80;;;;;;;22.17;58.22;102274.97;4938277;29;20039;-74
2021/08/23 02:52:40;;;;;;;1.20;0.90;;;;;;;22.15;57.95;102280.25;4955113;29;20031;-74
2021/08/23 02:55:06;;;;;;;0.85;0.70;;;;;;;22.17;58.14;102286.41;4939051;28;20039;-74
2021/08/23 02:57:39;;;;;;;1.33;0.95;;;;;;;22.13;57.97;102276.72;4941736;29;20418;-73
2021/08/23 03:00:07;;;;;;;1.48;1.00;;;;;;;22.16;58.13;102278.47;4911330;29;20039;-73
2021/08/23 03:02:33;;;;;;;2.30;0.73;;;;;;;22.17;58.17;102288.16;4941527;29;20497;-73
2021/08/23 03:04:58;;;;;;;1.02;0.70;;;;;;;22.15;58.19;102288.16;4941199;29;20039;-73
2021/08/23 03:07:24;;;;;;;1.00;0.90;;;;;;;22.08;58.20;102281.06;4941157;29;20031;-73
2021/08/23 03:09:49;;;;;;;2.30;0.90;;;;;;;22.14;58.32;102294.28;4958299;29;20106;-73
2021/08/23 03:12:15;;;;;;;0.75;0.65;;;;;;;22.13;57.98;102294.28;4958597;29;20370;-73
2021/08/23 03:14:41;;;;;;;1.73;1.13;;;;;;;22.17;57.89;102307.47;4958314;29;20039;-73
2021/08/23 03:17:06;;;;;;;1.23;0.85;;;;;;;22.16;58.14;102304.84;4940793;29;20500;-73
2021/08/23 03:19:32;;;;;;;0.95;0.70;;;;;;;22.11;58.21;102299.53;4925112;29;20038;-74
2021/08/23 03:21:57;;;;;;;1.70;1.20;;;;;;;22.16;58.04;102310.97;4940886;29;20375;-74
2021/08/23 03:24:23;;;;;;;1.83;0.90;;;;;;;22.13;58.09;102313.59;4924988;29;20035;-74
2021/08/23 03:26:48;;;;;;;1.40;0.95;;;;;;;22.12;58.16;102314.47;4940750;29;20027;-74
2021/08/23 03:29:13;;;;;;;1.05;0.70;;;;;;;22.14;57.98;102325.03;4940712;29;20478;-75
2021/08/23 03:31:40;;;;;;;0.98;0.80;;;;;;;22.15;58.02;102325.03;4940606;29;20086;-75
2021/08/23 03:34:08;;;;;;;1.50;1.00;;;;;;;22.14;58.01;102325.91;4957935;29;20058;-75
2021/08/23 03:36:35;;;;;;;0.90;0.80;;;;;;;22.11;58.06;102320.63;4940481;29;20528;-75
2021/08/23 03:39:01;;;;;;;1.50;1.10;;;;;;;22.09;58.06;102322.34;4957769;29;20026;-75
2021/08/23 03:41:26;;;;;;;1.20;0.82;;;;;;;22.14;57.90;102327.66;4924808;29;20382;-75
2021/08/23 03:43:51;;;;;;;1.00;0.80;;;;;;;22.09;58.14;102325.88;4957832;29;20027;-75
2021/08/23 03:46:17;;;;;;;1.02;0.75;;;;;;;22.09;57.97;102315.34;4957608;29;20035;-75
2021/08/23 03:48:42;;;;;;;1.17;0.80;;;;;;;22.10;57.98;102322.38;4957797;29;20406;-75
2021/08/23 03:51:07;;;;;;;1.05;0.80;;;;;;;22.14;58.40;102333.81;4957492;29;20393;-75
2021/08/23 03:53:33;;;;;;;0.95;0.82;;;;;;;22.09;57.71;102327.63;4924563;29;20386;-75
2021/08/23 03:55:58;;;;;;;1.20;0.90;;;;;;;22.13;57.92;102336.44;4940174;29;20406;-75
2021/08/23 03:58:24;;;;;;;1.20;1.00;;;;;;;22.15;57.97;102337.31;4940662;29;20035;-75
2021/08/23 04:00:49;;;;;;;1.45;0.85;;;;;;;22.14;57.98;102340.84;4957581;29;20031;-74
2021/08/23 04:03:14;;;;;;;1.23;0.82;;;;;;;22.14;57.99;102344.34;4940362;29;20039;-75
2021/08/23 04:05:42;;;;;;;1.13;0.85;;;;;;;22.13;57.91;102344.34;4957309;29;20039;-75
2021/08/23 04:08:07;;;;;;;0.82;0.70;;;;;;;22.13;57.98;102346.97;4956388;28;20069;-75
2021/08/23 04:10:32;;;;;;;1.17;0.80;;;;;;;22.02;58.02;102331.13;4940261;29;20043;-75
2021/08/23 04:12:58;;;;;;;1.13;0.90;;;;;;;22.07;58.06;102345.22;4908350;29;20066;-75
2021/08/23 04:15:23;;;;;;;1.30;1.02;;;;;;;22.13;57.96;102355.75;4924231;29;20034;-75
2021/08/23 04:17:49;;;;;;;1.27;0.90;;;;;;;22.13;57.97;102358.38;4924123;29;20394;-75
2021/08/23 04:20:14;;;;;;;1.08;0.75;;;;;;;22.09;58.03;102348.69;4956908;29;20047;-75
2021/08/23 04:22:39;;;;;;;1.23;1.05;;;;;;;22.14;57.97;102361.91;4939756;29;20466;-75
2021/08/23 04:25:06;;;;;;;0.93;0.80;;;;;;;22.09;58.00;102360.13;4939697;29;20043;-75
2021/08/23 04:27:31;;;;;;;1.05;0.75;;;;;;;22.08;57.94;102357.47;4939656;29;20463;-74
2021/08/23 04:29:57;;;;;;;1.25;0.90;;;;;;;22.11;58.00;102368.03;4923822;29;20023;-74
2021/08/23 04:32:22;;;;;;;1.15;0.80;;;;;;;22.13;58.00;102371.56;4939646;29;20074;-75
2021/08/23 04:34:47;;;;;;;1.50;0.95;;;;;;;22.11;57.97;102375.94;4923918;29;20377;-75
2021/08/23 04:37:13;;;;;;;0.73;0.60;;;;;;;22.03;58.02;102368.03;4939444;29;20070;-75
2021/08/23 04:39:38;;;;;;;1.08;0.70;;;;;;;22.11;57.93;102391.75;4924014;29;20035;-75
2021/08/23 04:42:03;;;;;;;0.70;0.60;;;;;;;22.10;57.86;102388.22;4939350;29;20031;-75
2021/08/23 04:44:29;;;;;;;1.08;0.75;;;;;;;22.09;57.90;102385.59;4939453;29;20127;-75
2021/08/23 04:46:54;;;;;;;1.08;0.98;;;;;;;22.13;58.02;102397.91;4923524;29;20039;-75
2021/08/23 04:49:20;;;;;;;1.23;0.90;;;;;;;22.13;57.95;102399.66;4939233;29;20388;-75
2021/08/23 04:51:46;;;;;;;0.60;0.50;;;;;;;22.09;57.92;102399.63;4956499;29;20422;-75
2021/08/23 04:54:11;;;;;;;2.63;1.20;;;;;;;22.11;58.29;102402.28;4939237;29;20030;-75
2021/08/23 04:56:36;;;;;;;1.48;0.73;;;;;;;22.09;57.99;102404.03;4939225;29;20058;-75
2021/08/23 04:59:02;;;;;;;0.93;0.75;;;;;;;22.11;57.83;102407.56;4923572;29;20086;-75
2021/08/23 05:01:28;;;;;;;1.38;1.10;;;;;;;22.07;58.12;102403.16;4939571;29;20386;-75
2021/08/23 05:03:53;;;;;;;0.82;0.70;;;;;;;22.12;58.03;102413.72;4956360;29;20070;-75
2021/08/23 05:06:19;;;;;;;0.80;0.70;;;;;;;22.13;58.03;102420.75;4956315;29;20023;-75
2021/08/23 05:08:44;;;;;;;1.55;0.95;;;;;;;22.05;57.86;102413.69;4956477;29;20043;-75
2021/08/23 05:11:10;;;;;;;1.15;0.70;;;;;;;22.09;58.04;102419.84;4956356;29;20040;-75
2021/08/23 05:13:36;;;;;;;1.58;1.00;;;;;;;22.12;57.86;102424.25;4956137;29;20030;-75
2021/08/23 05:16:01;;;;;;;1.55;1.00;;;;;;;22.12;58.03;102424.25;4956145;29;20110;-75
2021/08/23 05:18:27;;;;;;;0.80;0.70;;;;;;;22.13;57.92;102431.28;4938676;28;20538;-74
2021/08/23 05:20:52;;;;;;;1.20;1.00;;;;;;;22.12;58.09;102425.13;4956031;29;20046;-73
2021/08/23 05:23:18;;;;;;;0.95;0.65;;;;;;;22.13;58.12;102431.28;4922776;29;20027;-73
2021/08/23 05:25:43;;;;;;;1.27;0.80;;;;;;;22.11;58.00;102436.53;4956040;29;20119;-73
2021/08/23 05:28:09;;;;;;;0.60;0.60;;;;;;;22.13;58.03;102445.34;4955927;29;20110;-73
2021/08/23 05:30:34;;;;;;;0.70;0.70;;;;;;;22.13;57.98;102442.72;4938810;29;20121;-73
2021/08/23 05:33:00;;;;;;;0.90;0.82;;;;;;;22.09;57.96;102435.66;4955793;29;20027;-73
2021/08/23 05:35:25;;;;;;;1.38;1.10;;;;;;;22.13;58.00;102445.34;4955792;29;20055;-73
2021/08/23 05:37:51;;;;;;;0.80;0.68;;;;;;;22.09;57.92;102441.81;4935182;29;20051;-73
2021/08/23 05:40:17;;;;;;;1.10;1.00;;;;;;;22.08;57.99;102440.03;4936535;29;20110;-74
2021/08/23 05:42:43;;;;;;;0.85;0.65;;;;;;;22.10;58.00;102451.47;4935537;29;20064;-73
2021/08/23 05:45:09;;;;;;;0.80;0.70;;;;;;;22.12;57.92;102450.59;4935431;29;20462;-73
2021/08/23 05:47:37;;;;;;;0.98;0.77;;;;;;;22.11;58.15;102454.97;4919537;29;20034;-73
2021/08/23 05:50:03;;;;;;;0.80;0.70;;;;;;;22.12;58.09;102455.88;4935234;29;20035;-73
2021/08/23 05:52:28;;;;;;;1.73;0.90;;;;;;;22.14;58.06;102462.03;4935140;29;20492;-73
2021/08/23 05:54:53;;;;;;;0.90;0.70;;;;;;;22.14;57.95;102470.81;4936551;29;20039;-73
2021/08/23 05:57:19;;;;;;;1.92;0.98;;;;;;;22.13;57.96;102466.41;4936635;29;20471;-74
2021/08/23 05:59:44;;;;;;;1.02;0.90;;;;;;;22.13;57.98;102476.06;4935132;29;20506;-73
2021/08/23 06:02:10;;;;;;;1.30;0.82;;;;;;;22.12;58.08;102472.56;4904077;29;20059;-74
2021/08/23 06:04:35;;;;;;;1.20;0.50;;;;;;;22.13;57.93;102473.44;4937697;29;20047;-74
2021/08/23 06:07:00;;;;;;;0.95;0.80;;;;;;;22.15;57.96;102482.25;4935940;29;20470;-73
2021/08/23 06:09:26;;;;;;;1.38;0.90;;;;;;;22.12;58.03;102472.56;4936509;29;20035;-74
2021/08/23 06:11:51;;;;;;;1.40;0.82;;;;;;;22.12;58.09;102472.56;4920694;29;20119;-74
2021/08/23 06:14:17;;;;;;;0.70;0.65;;;;;;;22.11;57.90;102473.44;4937789;29;20031;-74
2021/08/23 06:16:43;;;;;;;1.08;0.90;;;;;;;22.15;57.94;102477.84;4920014;29;20518;-74
2021/08/23 06:19:08;;;;;;;1.10;0.63;;;;;;;22.13;57.91;102476.97;4937616;29;20031;-74
2021/08/23 06:21:36;;;;;;;1.00;0.65;;;;;;;22.14;58.04;102475.19;4935882;29;20386;-73
2021/08/23 06:24:02;;;;;;;1.45;1.15;;;;;;;22.13;57.91;102474.31;4936347;29;20091;-73
2021/08/23 06:26:28;;;;;;;1.17;0.70;;;;;;;22.10;57.85;102472.53;4935287;29;20028;-73
2021/08/23 06:28:53;;;;;;;0.93;0.80;;;;;;;22.15;57.93;102477.84;4919123;29;20091;-73
2021/08/23 06:31:19;;;;;;;1.35;0.65;;;;;;;22.16;57.93;102478.72;4920523;29;20043;-73
2021/08/23 06:33:45;;;;;;;0.90;0.80;;;;;;;22.16;58.49;102484.88;4906933;29;20023;-73
2021/08/23 06:36:10;;;;;;;0.93;0.70;;;;;;;22.12;57.78;102474.31;4944086;29;20058;-73
2021/08/23 06:38:35;;;;;;;1.27;1.13;;;;;;;22.16;57.92;102482.25;4959065;29;20037;-73
2021/08/23 06:41:01;;;;;;;0.70;0.70;;;;;;;22.17;57.93;102488.41;4959032;29;20055;-73
2021/08/23 06:43:27;;;;;;;2.17;1.25;;;;;;;22.16;57.85;102484.88;4959435;29;20047;-73
2021/08/23 06:45:52;;;;;;;1.40;1.17;;;;;;;22.13;57.85;102481.34;4943708;29;20386;-73
2021/08/23 06:48:17;;;;;;;0.73;0.65;;;;;;;22.17;57.87;102488.41;4962665;29;20027;-74
2021/08/23 06:50:46;;;;;;;1.52;0.77;;;;;;;22.17;57.85;102497.19;4944746;29;20019;-74
2021/08/23 06:53:11;;;;;;;1.83;0.80;;;;;;;22.10;57.80;102484.84;4959963;29;20023;-73
2021/08/23 06:55:37;;;;;;;1.10;0.90;;;;;;;22.18;57.82;102498.97;4910865;29;20082;-73
2021/08/23 06:58:03;;;;;;;1.38;0.90;;;;;;;22.12;57.88;102487.47;4941112;29;20138;-73
2021/08/23 07:00:28;;;;;;;1.10;0.88;;;;;;;22.17;57.85;102505.09;4941588;29;20042;-75
2021/08/23 07:02:54;;;;;;;0.82;0.70;;;;;;;22.18;57.81;102503.34;4925715;29;20031;-75
2021/08/23 07:05:22;;;;;;;1.52;0.90;;;;;;;22.17;57.88;102513.00;4958388;29;20054;-75
2021/08/23 07:07:47;;;;;;;2.05;1.02;;;;;;;22.18;57.90;102514.78;4958628;29;20035;-75
2021/08/23 07:10:13;;;;;;;1.00;0.80;;;;;;;22.19;57.90;102515.66;4959151;29;20027;-74
2021/08/23 07:12:44;;;;;;;1.00;0.70;;;;;;;22.14;57.77;102514.72;4943250;29;20035;-75
2021/08/23 07:15:28;;;;;;;1.67;0.70;;;;;;;22.19;58.01;102520.91;4960129;29;20505;-73
2021/08/23 07:17:54;;;;;;;1.08;0.90;;;;;;;22.19;57.94;102527.06;4958588;29;20031;-73
2021/08/23 07:20:22;;;;;;;1.08;0.90;;;;;;;22.16;57.89;102526.16;4942390;29;20055;-75
2021/08/23 07:22:48;;;;;;;1.55;0.80;;;;;;;22.15;57.81;102522.66;4943062;29;20177;-73
2021/08/23 07:25:18;;;;;;;1.33;0.90;;;;;;;22.05;57.77;102511.19;4942092;29;20082;-73
2021/08/23 07:27:43;;;;;;;1.17;0.85;;;;;;;22.09;57.85;102515.56;4942324;29;20031;-73
2021/08/23 07:30:10;;;;;;;0.70;0.70;;;;;;;22.21;57.96;102534.97;4926860;29;20470;-74
2021/08/23 07:32:48;;;;;;;1.98;0.73;;;;;;;22.19;57.91;102545.53;4944817;29;20034;-75
2021/08/23 07:35:16;;;;;;;1.20;0.90;;;;;;;22.08;57.78;102523.47;4961266;29;20082;-75
2021/08/23 07:37:46;;;;;;;1.80;0.88;;;;;;;22.22;57.82;102539.34;4943281;29;20147;-74
2021/08/23 07:40:13;;;;;;;1.70;1.52;;;;;;;22.23;57.77;102538.50;4957936;29;20168;-75
2021/08/23 07:42:39;;;;;;;1.05;0.88;;;;;;;22.23;57.83;102536.75;4940461;29;20125;-75
2021/08/23 07:45:05;;;;;;;1.30;0.88;;;;;;;22.23;57.82;102533.22;4958187;29;20209;-75
2021/08/23 07:47:41;;;;;;;1.02;0.80;;;;;;;22.19;57.87;102534.97;4958877;29;20035;-75
2021/08/23 07:50:07;;;;;;;1.25;0.93;;;;;;;22.25;57.81;102540.28;4926763;29;20067;-75
2021/08/23 07:52:33;;;;;;;1.05;0.90;;;;;;;22.25;57.68;102539.38;4940494;29;20027;-75
2021/08/23 07:54:58;;;;;;;1.05;0.90;;;;;;;22.24;57.71;102532.34;4957647;29;20386;-75
2021/08/23 07:57:23;;;;;;;0.75;0.60;;;;;;;22.27;57.80;102535.91;4940404;29;20474;-75
2021/08/23 07:59:49;;;;;;;0.93;0.70;;;;;;;22.29;58.02;102534.16;4957485;29;20435;-75
2021/08/23 08:02:14;;;;;;;1.48;1.02;;;;;;;22.30;57.72;102543.84;4957631;29;20027;-75
2021/08/23 08:04:40;;;;;;;1.77;1.48;;;;;;;22.33;57.54;102540.34;4942620;29;20031;-75
2021/08/23 08:07:06;;;;;;;0.82;0.70;;;;;;;22.32;57.63;102544.72;4962576;29;20027;-75
2021/08/23 08:09:43;;;;;;;1.23;0.93;;;;;;;22.29;57.55;102536.78;4947056;29;20035;-76
2021/08/23 08:12:11;;;;;;;1.45;0.65;;;;;;;22.35;57.62;102549.09;4933089;29;20031;-75
2021/08/23 08:14:36;;;;;;;0.93;0.70;;;;;;;22.35;57.40;102539.44;4946633;29;20031;-74
2021/08/23 08:17:04;;;;;;;1.58;0.95;;;;;;;22.43;57.58;102543.03;4963899;29;20126;-74
2021/08/23 08:19:30;;;;;;;1.20;0.70;;;;;;;22.40;57.42;102537.72;4945790;29;20035;-75
2021/08/23 08:22:05;;;;;;;1.73;1.08;;;;;;;22.45;57.39;102546.56;4913894;29;20043;-75
2021/08/23 08:24:30;;;;;;;1.17;0.90;;;;;;;22.43;57.50;102540.38;4962836;29;20028;-75
2021/08/23 08:26:56;;;;;;;1.25;1.00;;;;;;;22.45;57.43;102543.03;4944865;29;20067;-75
2021/08/23 08:29:24;;;;;;;1.25;0.80;;;;;;;22.49;57.31;102541.28;4945685;29;20031;-75
2021/08/23 08:31:55;;;;;;;1.08;0.90;;;;;;;22.55;57.24;102549.22;4930309;29;20115;-75
2021/08/23 08:34:23;;;;;;;2.47;0.85;;;;;;;22.51;57.14;102550.97;4963879;29;20035;-75
2021/08/23 08:36:52;;;;;;;1.45;1.10;;;;;;;22.56;57.06;102551.00;4946699;29;20529;-75
2021/08/23 08:39:17;;;;;;;1.25;0.93;;;;;;;22.55;57.14;102557.16;4946850;29;20106;-75
2021/08/23 08:41:45;;;;;;;1.15;0.80;;;;;;;22.58;57.13;102565.06;4945593;29;20067;-75
2021/08/23 08:44:11;;;;;;;2.53;1.10;;;;;;;22.48;56.96;102550.94;4946976;29;20038;-74
2021/08/23 08:46:48;;;;;;;1.38;1.13;;;;;;;22.57;57.12;102560.69;4963256;29;20027;-75
2021/08/23 08:49:17;;;;;;;1.00;0.82;;;;;;;22.53;57.10;102565.03;4962903;29;20090;-74
2021/08/23 08:51:46;;;;;;;1.55;1.00;;;;;;;22.55;57.14;102567.69;4962753;29;20038;-75
2021/08/23 08:54:11;;;;;;;0.80;0.75;;;;;;;22.62;57.21;102583.53;4945968;29;20074;-74
2021/08/23 08:56:39;;;;;;;1.08;0.70;;;;;;;22.58;57.00;102567.72;4963183;29;20442;-75
2021/08/23 08:59:05;;;;;;;1.25;1.00;;;;;;;22.59;56.98;102587.94;4962337;29;20167;-75
2021/08/23 09:01:31;;;;;;;1.40;1.05;;;;;;;22.61;57.00;102581.78;4944358;29;20043;-75
2021/08/23 09:04:02;;;;;;;1.60;1.33;;;;;;;22.63;56.96;102579.16;4960992;29;20024;-75
2021/08/23 09:06:36;;;;;;;1.70;1.42;;;;;;;22.64;56.96;102580.91;4960979;29;20045;-75
2021/08/23 09:09:13;;;;;;;1.10;0.80;;;;;;;22.60;56.94;102571.22;4943419;29;20047;-75
2021/08/23 09:11:40;;;;;;;0.90;0.70;;;;;;;22.55;56.96;102578.22;4944270;29;20019;-75
2021/08/23 09:14:08;;;;;;;1.83;0.90;;;;;;;22.50;57.03;102575.56;4961238;29;20168;-75
2021/08/23 09:16:36;;;;;;;0.55;0.52;;;;;;;22.50;57.27;102588.75;4944058;29;20031;-75
2021/08/23 09:19:01;;;;;;;1.88;0.90;;;;;;;22.48;57.18;102590.47;4961784;29;20082;-75
2021/08/23 09:21:35;;;;;;;1.27;0.90;;;;;;;22.52;57.31;102599.31;4961049;29;20089;-75
2021/08/23 09:24:00;;;;;;;1.25;0.77;;;;;;;22.49;57.24;102597.53;4961000;29;20031;-75
2021/08/23 09:26:31;;;;;;;1.13;0.70;;;;;;;22.55;56.99;102601.97;4944845;29;20042;-75
2021/08/23 09:29:04;;;;;;;1.10;0.80;;;;;;;22.56;56.96;102596.72;4960704;29;20492;-75
2021/08/23 09:31:35;;;;;;;1.10;0.80;;;;;;;22.57;56.99;102600.22;4943242;29;20027;-75
2021/08/23 09:34:05;;;;;;;1.67;1.25;;;;;;;22.55;56.91;102600.22;4944756;29;20027;-74
2021/08/23 09:36:31;;;;;;;1.23;1.00;;;;;;;22.54;56.92;102598.44;4941859;29;20088;-75
2021/08/23 09:39:14;;;;;;;1.05;0.80;;;;;;;22.57;56.97;102600.22;4942085;29;20051;-75
2021/08/23 09:41:42;;;;;;;0.90;0.75;;;;;;;22.58;56.99;102599.34;4940271;29;20057;-75
2021/08/23 09:44:13;;;;;;;1.02;0.80;;;;;;;22.54;56.77;102590.53;4942159;29;20047;-74
2021/08/23 09:46:40;;;;;;;1.05;0.90;;;;;;;22.55;57.01;102592.31;4941823;29;20035;-74
2021/08/23 09:49:09;;;;;;;1.25;0.88;;;;;;;22.59;56.80;102594.06;4939356;29;20153;-75
2021/08/23 09:51:38;;;;;;;1.10;0.70;;;;;;;22.54;56.85;102580.00;4941302;29;20054;-73
2021/08/23 09:54:16;;;;;;;1.38;0.70;;;;;;;22.55;56.88;102589.66;4939730;29;20110;-73
2021/08/23 09:56:49;;;;;;;1.25;0.70;;;;;;;22.57;56.94;102608.13;4941098;29;20024;-73
2021/08/23 09:59:17;;;;;;;1.48;0.80;;;;;;;22.53;56.91;102594.03;4940283;29;20035;-74
2021/08/23 10:01:44;;;;;;;1.13;0.73;;;;;;;22.54;56.89;102597.56;4941180;29;20030;-74
2021/08/23 10:04:11;;;;;;;2.05;0.98;;;;;;;22.48;57.09;102593.13;4936643;29;20513;-74
2021/08/23 10:06:38;;;;;;;1.50;0.85;;;;;;;22.54;56.84;102595.81;4939370;29;20028;-74
2021/08/23 10:09:05;;;;;;;1.20;0.88;;;;;;;22.52;56.73;102594.91;4944784;29;20035;-74
2021/08/23 10:11:32;;;;;;;1.17;0.98;;;;;;;22.52;56.83;102607.22;4943822;29;20036;-74
2021/08/23 10:13:59;;;;;;;1.98;1.00;;;;;;;22.54;56.86;102613.38;4944215;29;20110;-74
2021/08/23 10:16:25;;;;;;;0.85;0.73;;;;;;;22.53;56.91;102616.88;4943441;29;20035;-74
2021/08/23 10:18:52;;;;;;;1.75;1.17;;;;;;;22.52;56.90;102604.56;4943902;29;20038;-74
2021/08/23 10:21:20;;;;;;;1.42;0.90;;;;;;;22.55;56.69;102600.22;4943649;29;20161;-74
2021/08/23 10:23:48;;;;;;;1.30;0.82;;;;;;;22.53;56.70;102598.44;4944053;29;20031;-74
2021/08/23 10:26:13;;;;;;;1.50;1.27;;;;;;;22.52;56.93;102600.19;4927281;29;20051;-74
2021/08/23 10:28:38;;;;;;;2.53;1.00;;;;;;;22.51;56.85;102601.06;4942774;29;20027;-74
2021/08/23 10:31:15;;;;;;;1.98;1.10;;;;;;;22.52;56.85;102604.56;4943252;29;20086;-74
2021/08/23 10:33:42;;;;;;;1.35;0.90;;;;;;;22.51;56.81;102601.06;4944044;29;20390;-74
2021/08/23 10:36:12;;;;;;;1.27;0.80;;;;;;;22.52;56.80;102601.94;4943097;29;20058;-74
2021/08/23 10:38:45;;;;;;;0.80;0.70;;;;;;;22.58;56.55;102612.53;4927054;29;20050;-74
2021/08/23 10:41:12;;;;;;;;;;;;;;;22.57;56.63;102608.13;4944133;29;20039;-74
2021/08/23 10:43:51;;;;;;;2.03;1.10;;;;;;;22.57;56.72;102602.88;4942365;29;19922;-74
2021/08/23 10:46:31;;;;;;;1.50;1.27;;;;;;;22.53;56.74;102596.69;4943928;29;20035;-74
2021/08/23 10:49:00;;;;;;;1.63;1.02;;;;;;;22.47;56.70;102596.63;4943374;29;20039;-74
2021/08/23 10:51:37;;;;;;;1.42;0.90;;;;;;;22.53;56.81;102606.34;4943551;29;20087;-74
2021/08/23 10:54:25;;;;;;;1.25;1.00;;;;;;;22.56;56.65;102604.63;4941572;29;20024;-74
2021/08/23 10:56:59;;;;;;;1.30;0.73;;;;;;;22.54;56.73;102606.34;4943074;29;20099;-74
2021/08/23 10:59:30;;;;;;;1.20;0.95;;;;;;;22.51;56.62;102601.06;4943357;29;20380;-74
2021/08/23 11:01:58;;;;;;;1.10;0.90;;;;;;;22.52;56.72;102604.56;4942497;29;20036;-74
2021/08/23 11:04:34;;;;;;;1.70;1.30;;;;;;;22.55;56.60;102608.13;4942646;29;20035;-74
2021/08/23 11:07:01;;;;;;;1.50;1.13;;;;;;;22.50;56.72;102590.50;4942448;29;20028;-74
2021/08/23 11:09:43;;;;;;;1.40;0.80;;;;;;;22.49;56.71;102596.63;4944036;29;20031;-74
2021/08/23 11:12:13;;;;;;;1.95;0.90;;;;;;;22.54;56.85;102602.84;4940966;29;20382;-74
2021/08/23 11:14:57;;;;;;;1.65;1.38;;;;;;;22.50;56.87;102601.03;4939855;29;20486;-74
2021/08/23 11:17:25;;;;;;;;;;;;;;;22.55;56.66;102615.16;4941172;29;20035;-74
2021/08/23 11:19:51;;;;;;;1.48;0.88;;;;;;;22.53;56.84;102596.69;4939172;29;19917;-74
2021/08/23 11:22:17;;;;;;;2.95;0.90;;;;;;;22.55;56.70;102608.13;4923805;29;20032;-74
2021/08/23 11:24:42;;;;;;;1.15;0.85;;;;;;;22.52;56.59;102601.94;4941139;29;20024;-74
2021/08/23 11:27:08;;;;;;;1.60;0.90;;;;;;;22.56;56.67;102601.09;4943175;29;20087;-74